Time;durP1;ratioP1;P1;durP2;ratioP2;P2;SDS_P1;SDS_P2;PMS_P1;PMS_P2;Temp;Humidity;BMP_temperature;BMP_pressure;BME280_temperature;BME280_humidity;BME280_pressure;Samples;Min_cycle;Max_cycle;Signal;HPM_P1;HPM_P2
2021/07/28 00:00:59;;;;;;;17.73;9.95;;;;;;;17.32;69.64;99851.34;2101474;82;21043;-74
2021/07/28 00:04:00;;;;;;;16.02;10.65;;;;;;;17.23;70.17;99846.23;2087596;83;21537;-76
2021/07/28 00:07:02;;;;;;;14.15;9.53;;;;;;;17.15;70.26;99844.33;2085879;82;22253;-79
2021/07/28 00:10:05;;;;;;;16.85;9.23;;;;;;;17.09;70.25;99838.47;2071165;83;21217;-74
2021/07/28 00:13:06;;;;;;;15.58;8.38;;;;;;;17.09;70.39;99843.83;2101824;82;21588;-77
2021/07/28 00:16:12;;;;;;;14.35;8.55;;;;;;;17.07;70.23;99843.25;2090494;82;21076;-72
2021/07/28 00:19:20;;;;;;;14.73;9.80;;;;;;;17.02;70.25;99846.04;2091727;82;21066;-74
2021/07/28 00:23:21;;;;;;;12.18;8.63;;;;;;;16.96;70.28;99849.59;2090002;83;21058;-73
2021/07/28 00:25:39;;;;;;;12.47;9.20;;;;;;;16.87;70.23;99842.84;2058350;82;21050;-72
2021/07/28 00:28:38;;;;;;;16.30;10.48;;;;;;;16.87;70.51;99838.83;2081375;82;21018;-76
2021/07/28 00:31:40;;;;;;;19.62;9.78;;;;;;;16.83;70.50;99832.23;2076723;82;21075;-75
2021/07/28 00:34:41;;;;;;;15.05;9.45;;;;;;;16.81;70.90;99822.27;2092986;82;21078;-77
2021/07/28 00:37:45;;;;;;;11.33;7.70;;;;;;;16.77;70.70;99821.86;2093980;83;21689;-79
2021/07/28 00:40:46;;;;;;;13.85;7.58;;;;;;;16.71;70.41;99815.98;2102122;82;21123;-73
2021/07/28 00:43:48;;;;;;;12.73;9.03;;;;;;;16.64;70.41;99817.89;2077776;83;21653;-75
2021/07/28 00:46:50;;;;;;;14.40;9.05;;;;;;;16.62;70.60;99811.11;2105153;82;21031;-73
2021/07/28 00:49:51;;;;;;;15.85;9.70;;;;;;;16.62;70.74;99822.64;2102508;82;21048;-73
2021/07/28 00:52:53;;;;;;;14.60;8.50;;;;;;;16.61;70.91;99816.14;2093993;82;21077;-79
2021/07/28 00:55:55;;;;;;;18.02;8.83;;;;;;;16.57;70.90;99819.25;2087407;83;21108;-78
2021/07/28 00:58:57;;;;;;;12.50;8.85;;;;;;;16.56;71.01;99822.97;2089308;82;21342;-77
2021/07/28 01:01:59;;;;;;;10.70;8.38;;;;;;;16.56;71.17;99820.81;2074086;83;21088;-73
2021/07/28 01:05:00;;;;;;;16.93;9.50;;;;;;;16.54;71.20;99815.66;2082425;82;21051;-74
2021/07/28 01:08:02;;;;;;;16.67;9.75;;;;;;;16.52;71.38;99815.04;2096446;82;21308;-75
2021/07/28 01:11:06;;;;;;;11.05;8.58;;;;;;;16.49;71.56;99806.09;2077156;83;21076;-76
2021/07/28 01:14:07;;;;;;;18.57;9.10;;;;;;;16.45;71.52;99804.08;2080687;83;21121;-76
2021/07/28 01:17:10;;;;;;;18.42;8.73;;;;;;;16.43;71.80;99806.95;2093486;82;21735;-77
2021/07/28 01:20:12;;;;;;;15.35;9.28;;;;;;;16.42;71.84;99797.81;2088321;82;21701;-77
2021/07/28 01:23:19;;;;;;;15.10;9.68;;;;;;;16.38;71.78;99804.08;2097601;82;21054;-75
2021/07/28 01:26:21;;;;;;;13.88;8.98;;;;;;;16.34;71.99;99805.55;2087109;82;21133;-76
2021/07/28 01:29:23;;;;;;;14.18;8.45;;;;;;;16.35;72.11;99807.19;2088306;82;21071;-73
2021/07/28 01:32:25;;;;;;;11.78;8.65;;;;;;;16.33;71.82;99804.73;2098878;82;21037;-78
2021/07/28 01:35:30;;;;;;;14.58;9.35;;;;;;;16.29;72.11;99804.02;2095646;83;21121;-79
2021/07/28 01:38:33;;;;;;;17.92;9.13;;;;;;;16.29;72.21;99807.52;2105742;82;21163;-73
2021/07/28 01:41:34;;;;;;;15.13;7.85;;;;;;;16.27;72.14;99802.06;2083132;82;21603;-76
2021/07/28 01:44:37;;;;;;;12.55;7.90;;;;;;;16.26;72.14;99803.11;2091453;83;21089;-73
2021/07/28 01:47:40;;;;;;;15.13;7.25;;;;;;;16.21;72.04;99804.25;2091747;82;21583;-72
2021/07/28 01:50:45;;;;;;;12.43;7.83;;;;;;;16.16;71.99;99807.55;2090044;83;21026;-77
2021/07/28 01:53:47;;;;;;;17.10;8.10;;;;;;;16.14;72.06;99801.09;2105033;82;21563;-73
2021/07/28 01:56:48;;;;;;;13.22;7.97;;;;;;;16.12;72.08;99806.34;2098102;83;21077;-75
2021/07/28 01:59:51;;;;;;;16.65;7.55;;;;;;;16.11;72.24;99811.41;2097814;83;21152;-75
2021/07/28 02:02:54;;;;;;;17.20;10.03;;;;;;;16.08;71.88;99800.59;2074853;83;21083;-73
2021/07/28 02:05:55;;;;;;;20.30;9.95;;;;;;;16.07;72.38;99801.61;2094923;82;21084;-75
2021/07/28 02:08:57;;;;;;;15.88;9.85;;;;;;;15.98;72.74;99791.36;2091910;82;22053;-75
2021/07/28 02:11:58;;;;;;;16.62;11.48;;;;;;;15.86;73.04;99789.84;2091607;83;21090;-74
2021/07/28 02:15:00;;;;;;;17.10;11.43;;;;;;;15.83;73.27;99790.27;2094083;82;21138;-75
2021/07/28 02:18:03;;;;;;;12.00;8.65;;;;;;;15.81;73.58;99782.95;2076968;82;21043;-77
2021/07/28 02:21:05;;;;;;;12.68;8.80;;;;;;;15.80;73.32;99784.81;2103772;82;21029;-77
2021/07/28 02:24:06;;;;;;;14.10;9.50;;;;;;;15.81;73.25;99787.78;2089620;83;21013;-73
2021/07/28 02:27:08;;;;;;;16.80;8.90;;;;;;;15.82;73.44;99785.92;2093293;83;21028;-76
2021/07/28 02:30:12;;;;;;;14.40;9.35;;;;;;;15.84;73.29;99794.58;2105691;82;21088;-76
2021/07/28 02:33:14;;;;;;;17.40;9.00;;;;;;;15.83;73.42;99795.63;2089824;82;21047;-73
2021/07/28 02:36:15;;;;;;;14.70;9.28;;;;;;;15.84;73.44;99800.74;2081050;82;21073;-80
2021/07/28 02:39:17;;;;;;;12.53;9.13;;;;;;;15.86;73.36;99799.21;2095624;82;21081;-74
2021/07/28 02:42:18;;;;;;;13.85;10.23;;;;;;;15.82;73.30;99792.09;2092512;83;21104;-75
2021/07/28 02:45:20;;;;;;;13.95;10.38;;;;;;;15.81;73.45;99787.78;2082040;83;21047;-77
2021/07/28 02:48:22;;;;;;;18.00;10.82;;;;;;;15.80;73.58;99784.00;2085055;82;21013;-72
2021/07/28 02:51:23;;;;;;;19.82;11.22;;;;;;;15.73;73.68;99777.83;2092784;83;21046;-79
2021/07/28 02:54:25;;;;;;;13.90;10.25;;;;;;;15.64;73.89;99777.20;2090152;83;21142;-73
2021/07/28 02:57:26;;;;;;;18.77;9.78;;;;;;;15.69;74.07;99784.94;2101115;82;21084;-75
2021/07/28 03:00:28;;;;;;;19.55;9.68;;;;;;;15.71;73.88;99782.06;2103144;82;21155;-72
2021/07/28 03:03:30;;;;;;;14.55;9.55;;;;;;;15.73;73.84;99790.68;2089268;82;21562;-75
2021/07/28 03:06:32;;;;;;;18.15;8.68;;;;;;;15.72;73.95;99790.38;2089485;82;21641;-77
2021/07/28 03:09:34;;;;;;;13.35;9.98;;;;;;;15.72;73.90;99795.73;2102581;82;21718;-73
2021/07/28 03:12:35;;;;;;;15.90;8.75;;;;;;;15.71;73.96;99798.60;2099093;82;21056;-77
2021/07/28 03:15:37;;;;;;;18.20;10.55;;;;;;;15.66;73.75;99790.67;2090740;82;21097;-73
2021/07/28 03:18:39;;;;;;;20.57;11.10;;;;;;;15.59;74.08;99777.80;2095778;82;21104;-77
2021/07/28 03:21:40;;;;;;;14.68;8.60;;;;;;;15.57;74.22;99779.89;2080951;83;22088;-76
2021/07/28 03:24:42;;;;;;;14.20;9.75;;;;;;;15.56;74.18;99784.09;2089724;83;21104;-76
2021/07/28 03:27:43;;;;;;;14.10;9.80;;;;;;;15.59;74.35;99780.48;2087691;82;21143;-73
2021/07/28 03:30:45;;;;;;;15.35;10.35;;;;;;;15.64;74.47;99786.55;2101719;82;21065;-75
2021/07/28 03:33:46;;;;;;;18.32;9.43;;;;;;;15.66;74.45;99783.16;2087131;82;21025;-76
2021/07/28 03:36:48;;;;;;;11.40;8.53;;;;;;;15.66;74.36;99785.32;2087198;82;21051;-75
2021/07/28 03:40:00;;;;;;;15.95;9.90;;;;;;;15.61;74.10;99778.43;2101815;82;21124;-74
2021/07/28 03:42:54;;;;;;;15.85;9.90;;;;;;;15.57;74.45;99775.88;2086693;82;21090;-75
2021/07/28 03:45:55;;;;;;;15.20;9.48;;;;;;;15.52;74.51;99772.18;2081104;82;21221;-73
2021/07/28 03:48:57;;;;;;;17.17;10.40;;;;;;;15.50;74.75;99776.39;2080901;82;21060;-75
2021/07/28 03:51:59;;;;;;;18.92;10.18;;;;;;;15.54;74.81;99770.95;2092838;82;22124;-74
2021/07/28 03:55:00;;;;;;;19.82;8.65;;;;;;;15.65;74.81;99766.80;2102598;82;21097;-75
2021/07/28 03:58:02;;;;;;;18.40;10.82;;;;;;;15.83;74.71;99770.20;2077502;83;22437;-77
2021/07/28 04:01:03;;;;;;;14.90;10.20;;;;;;;15.98;74.90;99777.98;2091105;82;22325;-73
2021/07/28 04:04:05;;;;;;;17.05;10.00;;;;;;;16.13;74.78;99778.53;2088777;82;21752;-78
2021/07/28 04:07:07;;;;;;;19.05;10.48;;;;;;;16.22;74.68;99779.97;2096831;82;21548;-73
2021/07/28 04:10:11;;;;;;;11.73;8.60;;;;;;;16.30;74.74;99777.55;2096160;82;21684;-75
2021/07/28 04:13:13;;;;;;;15.58;9.63;;;;;;;16.36;74.60;99774.05;2079661;82;21073;-79
2021/07/28 04:16:14;;;;;;;14.40;10.20;;;;;;;16.35;74.49;99771.05;2102557;82;21096;-76
2021/07/28 04:19:16;;;;;;;14.40;11.10;;;;;;;16.40;74.76;99778.45;2087017;82;21102;-76
2021/07/28 04:22:19;;;;;;;15.23;11.22;;;;;;;16.42;74.83;99769.69;2082012;82;21739;-75
2021/07/28 04:25:21;;;;;;;13.68;10.88;;;;;;;16.50;74.98;99770.27;2099836;82;21579;-76
2021/07/28 04:28:22;;;;;;;14.05;9.63;;;;;;;16.62;75.17;99774.95;2093961;82;21265;-73
2021/07/28 04:31:24;;;;;;;14.35;9.85;;;;;;;16.73;75.18;99771.59;2089612;83;21572;-76
2021/07/28 04:34:25;;;;;;;13.32;11.08;;;;;;;16.82;75.20;99768.98;2101237;83;21093;-77
2021/07/28 04:37:27;;;;;;;13.13;10.45;;;;;;;16.92;75.20;99773.35;2104062;82;21063;-75
2021/07/28 04:40:28;;;;;;;15.85;10.90;;;;;;;17.08;75.28;99777.88;2098431;82;21164;-76
2021/07/28 04:43:30;;;;;;;11.43;10.18;;;;;;;17.22;75.20;99759.30;2082003;83;21587;-73
2021/07/28 04:46:32;;;;;;;13.88;11.40;;;;;;;17.36;75.28;99765.37;2082498;83;22942;-76
2021/07/28 04:49:33;;;;;;;15.58;11.03;;;;;;;17.50;75.17;99766.08;2099412;82;21604;-76
2021/07/28 04:52:35;;;;;;;13.62;10.85;;;;;;;17.64;75.07;99758.20;2088834;82;21520;-75
2021/07/28 04:55:37;;;;;;;16.25;11.30;;;;;;;17.73;74.93;99754.19;2096733;82;21085;-76
2021/07/28 04:58:38;;;;;;;15.18;11.33;;;;;;;17.81;74.88;99756.61;2088970;83;22468;-73
2021/07/28 05:01:40;;;;;;;17.73;10.30;;;;;;;18.05;74.86;99746.86;2093239;82;21556;-74
2021/07/28 05:04:43;;;;;;;16.45;11.10;;;;;;;18.23;74.52;99746.02;2085767;83;21056;-77
2021/07/28 05:07:44;;;;;;;18.37;11.40;;;;;;;18.33;74.29;99746.30;2084862;82;21135;-79
2021/07/28 05:10:49;;;;;;;15.10;11.43;;;;;;;18.46;74.22;99745.82;2094975;82;21068;-76
2021/07/28 05:13:50;;;;;;;17.87;10.88;;;;;;;18.59;74.00;99741.09;2097275;82;21608;-73
2021/07/28 05:16:52;;;;;;;18.00;11.53;;;;;;;18.64;73.73;99748.48;2092046;82;22534;-75
2021/07/28 05:19:53;;;;;;;12.23;10.88;;;;;;;18.72;73.62;99742.75;2094978;83;21117;-79
2021/07/28 05:22:55;;;;;;;13.85;11.38;;;;;;;18.81;73.83;99741.96;2097547;82;21069;-79
2021/07/28 05:25:57;;;;;;;14.83;11.50;;;;;;;18.91;73.69;99737.35;2091159;82;21080;-74
2021/07/28 05:28:58;;;;;;;14.50;11.03;;;;;;;19.00;73.68;99739.46;2098621;82;21117;-75
2021/07/28 05:32:00;;;;;;;15.28;11.40;;;;;;;19.13;73.53;99739.78;2084346;82;21945;-77
2021/07/28 05:35:02;;;;;;;16.75;12.03;;;;;;;19.29;73.53;99734.26;2085931;83;21099;-73
2021/07/28 05:38:04;;;;;;;13.65;11.28;;;;;;;19.41;73.27;99740.98;2097016;82;21112;-74
2021/07/28 05:41:06;;;;;;;14.87;11.40;;;;;;;19.53;73.08;99736.41;2081856;82;21074;-80
2021/07/28 05:44:07;;;;;;;17.80;12.15;;;;;;;19.62;72.90;99739.56;2076281;83;21085;-75
2021/07/28 05:47:10;;;;;;;13.98;11.48;;;;;;;19.74;72.85;99743.61;2079720;83;21108;-74
2021/07/28 05:50:14;;;;;;;15.28;11.85;;;;;;;19.92;72.94;99740.79;2069204;82;21112;-75
2021/07/28 05:53:15;;;;;;;18.25;12.63;;;;;;;20.09;72.52;99737.64;2102623;82;21081;-75
2021/07/28 05:56:17;;;;;;;13.40;11.70;;;;;;;20.48;72.64;99741.91;2081599;82;21120;-80
2021/07/28 05:59:18;;;;;;;19.20;11.35;;;;;;;21.02;72.15;99745.58;2091365;83;21062;-77
2021/07/28 06:02:20;;;;;;;12.88;10.60;;;;;;;21.56;71.56;99741.05;2082250;83;21159;-73
2021/07/28 06:05:22;;;;;;;17.37;11.45;;;;;;;22.02;70.86;99740.30;2088582;83;21037;-77
2021/07/28 06:08:23;;;;;;;14.65;11.25;;;;;;;22.39;69.97;99739.16;2094768;82;21114;-76
2021/07/28 06:11:25;;;;;;;16.07;11.18;;;;;;;22.69;69.56;99737.83;2069551;83;21175;-74
2021/07/28 06:14:27;;;;;;;15.03;10.72;;;;;;;23.06;68.96;99737.95;2080033;83;21097;-79
2021/07/28 06:17:28;;;;;;;15.28;11.30;;;;;;;23.27;68.06;99732.95;2074825;82;21167;-77
2021/07/28 06:20:30;;;;;;;14.35;10.60;;;;;;;23.32;67.26;99731.38;2090020;82;21056;-72
2021/07/28 06:23:33;;;;;;;12.43;10.80;;;;;;;23.27;66.91;99732.95;2098546;82;21066;-76
2021/07/28 06:26:35;;;;;;;14.25;11.18;;;;;;;23.30;66.53;99727.56;2097636;82;21528;-81
2021/07/28 06:29:36;;;;;;;16.37;10.70;;;;;;;23.43;66.69;99724.95;2086038;83;21015;-73
2021/07/28 06:32:38;;;;;;;12.93;10.45;;;;;;;23.52;66.33;99726.63;2087019;82;21065;-73
2021/07/28 06:35:40;;;;;;;12.10;10.35;;;;;;;23.42;65.79;99728.72;2097205;82;21078;-75
2021/07/28 06:38:41;;;;;;;12.13;10.05;;;;;;;23.31;65.61;99727.02;2085523;82;21079;-74
2021/07/28 06:41:43;;;;;;;10.80;9.53;;;;;;;23.37;66.00;99727.32;2098290;82;21084;-75
2021/07/28 06:44:46;;;;;;;13.88;10.65;;;;;;;23.59;65.56;99731.25;2092690;83;21334;-73
2021/07/28 06:47:47;;;;;;;13.68;10.23;;;;;;;23.70;64.90;99725.66;2093497;82;21460;-75
2021/07/28 06:50:49;;;;;;;10.58;9.30;;;;;;;23.88;65.00;99731.19;2087887;82;21730;-79
2021/07/28 06:53:51;;;;;;;11.75;9.90;;;;;;;24.04;65.17;99742.89;2077602;82;21094;-74
2021/07/28 06:56:52;;;;;;;38.08;10.75;;;;;;;24.32;64.99;99752.48;2091055;82;21075;-75
2021/07/28 06:59:55;;;;;;;15.85;9.78;;;;;;;24.65;64.91;99746.91;2082511;83;21045;-74
2021/07/28 07:02:58;;;;;;;14.55;9.50;;;;;;;24.93;64.13;99746.39;2098967;82;21065;-74
2021/07/28 07:06:00;;;;;;;12.05;7.87;;;;;;;25.22;63.88;99751.30;2092135;82;21121;-75
2021/07/28 07:09:01;;;;;;;11.70;9.15;;;;;;;25.73;63.65;99745.78;2092185;82;21168;-79
2021/07/28 07:12:04;;;;;;;33.38;9.70;;;;;;;26.50;63.19;99748.23;2096768;82;21111;-78
2021/07/28 07:15:07;;;;;;;9.85;8.73;;;;;;;27.20;62.00;99743.41;2094657;82;21148;-80
2021/07/28 07:18:09;;;;;;;10.23;8.53;;;;;;;27.69;61.08;99735.55;2091454;82;21119;-78
2021/07/28 07:21:12;;;;;;;12.73;9.00;;;;;;;27.90;59.78;99729.89;2084191;82;21119;-76
2021/07/28 07:24:14;;;;;;;11.95;7.80;;;;;;;28.07;59.31;99734.33;2099879;82;21057;-78
2021/07/28 07:27:15;;;;;;;12.30;8.35;;;;;;;28.68;58.41;99730.51;2092020;82;21880;-76
2021/07/28 07:30:17;;;;;;;9.53;7.67;;;;;;;29.20;57.15;99729.95;2073946;82;21029;-77
2021/07/28 07:33:38;;;;;;;9.83;7.95;;;;;;;29.59;56.88;99724.59;2091847;82;21698;-79
2021/07/28 07:36:40;;;;;;;11.50;7.40;;;;;;;30.09;56.09;99720.05;2090583;82;21037;-76
2021/07/28 07:39:42;;;;;;;10.80;7.47;;;;;;;30.80;52.76;99709.48;2077694;83;21036;-74
2021/07/28 07:42:43;;;;;;;11.57;6.78;;;;;;;31.10;52.01;99708.44;2088382;82;21024;-78
2021/07/28 07:45:45;;;;;;;12.60;6.60;;;;;;;31.48;52.11;99702.52;2082898;82;21011;-77
2021/07/28 07:48:47;;;;;;;7.80;6.87;;;;;;;31.48;50.54;99684.70;2099360;82;21093;-77
2021/07/28 07:51:48;;;;;;;9.63;6.47;;;;;;;31.52;50.08;99677.48;2094476;82;21069;-75
2021/07/28 07:54:50;;;;;;;9.88;6.50;;;;;;;31.52;50.08;99677.48;2098312;82;21501;-74
2021/07/28 07:57:52;;;;;;;8.55;6.47;;;;;;;31.71;50.16;99706.82;2088480;82;21123;-74
2021/07/28 08:00:53;;;;;;;14.73;7.08;;;;;;;31.77;49.31;99705.31;2090960;83;21579;-75
2021/07/28 08:03:55;;;;;;;9.53;6.97;;;;;;;31.75;46.53;99693.27;2085997;83;21052;-76
2021/07/28 08:06:56;;;;;;;9.78;6.55;;;;;;;31.74;48.38;99695.78;2099693;82;21051;-76
2021/07/28 08:09:58;;;;;;;8.23;5.85;;;;;;;32.13;48.09;99696.30;2101935;82;21076;-75
2021/07/28 08:13:00;;;;;;;10.23;5.97;;;;;;;32.42;47.82;99690.74;2088305;83;21061;-75
2021/07/28 08:16:19;;;;;;;9.45;6.42;;;;;;;32.51;47.05;99690.77;2098109;82;21671;-76
2021/07/28 08:19:20;;;;;;;6.72;5.10;;;;;;;32.30;45.34;99687.84;2092708;82;21653;-75
2021/07/28 08:22:22;;;;;;;6.53;4.87;;;;;;;32.04;45.59;99697.39;2091645;82;21147;-74
2021/07/28 08:25:23;;;;;;;10.35;5.37;;;;;;;32.13;43.66;99695.50;2091300;82;21843;-76
2021/07/28 08:28:25;;;;;;;7.15;5.47;;;;;;;32.25;43.99;99697.03;2101690;82;21073;-75
2021/07/28 08:31:26;;;;;;;9.15;5.28;;;;;;;32.56;44.14;99691.98;2092529;82;21027;-75
2021/07/28 08:34:28;;;;;;;9.50;4.28;;;;;;;33.06;44.46;99688.70;2099302;82;21096;-76
2021/07/28 08:37:30;;;;;;;7.00;4.85;;;;;;;33.34;43.23;99687.73;2093269;82;21509;-76
2021/07/28 08:40:32;;;;;;;9.53;4.90;;;;;;;33.19;42.83;99688.25;2103848;82;22114;-76
2021/07/28 08:43:37;;;;;;;6.75;4.78;;;;;;;32.94;43.07;99685.78;2069290;83;21088;-76
2021/07/28 08:46:38;;;;;;;6.67;4.90;;;;;;;32.60;42.95;99684.70;2068400;82;21643;-76
2021/07/28 08:49:40;;;;;;;6.30;4.70;;;;;;;32.47;43.55;99680.20;2101743;82;21614;-76
2021/07/28 08:52:42;;;;;;;9.88;4.53;;;;;;;32.26;42.93;99685.48;2110237;82;21001;-75
2021/07/28 08:55:45;;;;;;;7.58;4.85;;;;;;;32.09;43.13;99689.82;2096149;82;21108;-76
2021/07/28 08:58:46;;;;;;;8.15;4.05;;;;;;;31.91;43.46;99686.82;2106408;82;21058;-75
2021/07/28 09:01:48;;;;;;;8.93;4.60;;;;;;;31.85;43.69;99690.81;2072257;82;21549;-76
2021/07/28 09:04:50;;;;;;;8.08;4.75;;;;;;;31.91;43.61;99690.36;2091086;82;22407;-76
2021/07/28 09:07:55;;;;;;;11.22;4.70;;;;;;;31.98;43.78;99696.74;2084927;82;21040;-76
2021/07/28 09:11:03;;;;;;;6.47;4.78;;;;;;;31.94;44.02;99693.03;2099073;82;21102;-75
2021/07/28 09:14:21;;;;;;;7.67;4.70;;;;;;;31.91;44.04;99700.53;2097419;82;22336;-76
2021/07/28 09:17:27;;;;;;;8.98;5.05;;;;;;;31.80;43.17;99699.98;2101860;82;21076;-75
2021/07/28 09:20:27;;;;;;;7.22;4.90;;;;;;;31.62;44.16;99696.39;2086890;81;21079;-75
2021/07/28 09:23:40;;;;;;;17.20;4.70;;;;;;;31.55;44.03;99699.34;2086159;82;21139;-75
2021/07/28 09:26:48;;;;;;;7.10;4.72;;;;;;;31.53;43.93;99695.53;2088793;82;21179;-76
2021/07/28 09:29:53;;;;;;;8.18;5.45;;;;;;;31.40;43.93;99697.84;2093155;82;21076;-75
2021/07/28 09:33:09;;;;;;;24.07;6.33;;;;;;;31.23;44.79;99701.27;2080134;82;21083;-75
2021/07/28 09:36:16;;;;;;;47.98;7.92;;;;;;;31.26;45.38;99698.70;2097707;82;21053;-75
2021/07/28 09:39:39;;;;;;;8.08;5.45;;;;;;;31.25;45.13;99700.38;2097505;82;21578;-75
2021/07/28 09:42:41;;;;;;;7.87;5.05;;;;;;;31.20;45.20;99707.38;2098515;82;21050;-76
2021/07/28 09:45:42;;;;;;;5.70;4.42;;;;;;;31.12;45.33;99699.36;2103757;82;21132;-76
2021/07/28 09:48:44;;;;;;;10.05;4.83;;;;;;;31.09;45.37;99691.77;2088066;82;21151;-75
2021/07/28 09:51:46;;;;;;;7.78;5.47;;;;;;;31.44;45.65;99690.59;2092763;82;21630;-77
2021/07/28 09:54:51;;;;;;;9.55;4.53;;;;;;;32.13;45.02;99693.55;2093908;82;21124;-76
2021/07/28 09:57:59;;;;;;;12.75;6.28;;;;;;;32.44;44.20;99688.48;2089108;82;21030;-75
2021/07/28 10:01:00;;;;;;;9.03;5.10;;;;;;;32.55;43.81;99691.19;2071329;83;21152;-76
2021/07/28 10:04:07;;;;;;;10.30;5.10;;;;;;;32.91;44.01;99689.18;2093272;82;21028;-75
2021/07/28 10:07:09;;;;;;;10.35;5.47;;;;;;;33.24;43.39;99693.00;2090732;83;22378;-79
2021/07/28 10:10:12;;;;;;;11.75;5.10;;;;;;;33.41;42.64;99694.88;2083669;82;21156;-78
2021/07/28 10:13:17;;;;;;;7.05;5.17;;;;;;;33.69;42.07;99691.71;2093299;83;21657;-77
2021/07/28 10:16:19;;;;;;;10.90;4.95;;;;;;;34.03;41.64;99692.64;2101010;82;21104;-84
2021/07/28 10:19:22;;;;;;;11.05;4.90;;;;;;;34.30;41.41;99684.47;2087713;83;21069;-81
2021/07/28 10:22:23;;;;;;;9.10;4.92;;;;;;;34.43;40.77;99679.81;2092772;82;21076;-78
2021/07/28 10:25:26;;;;;;;11.10;4.70;;;;;;;34.49;41.00;99677.08;2094140;82;21104;-79
2021/07/28 10:28:27;;;;;;;9.73;5.87;;;;;;;34.72;40.64;99673.41;2093874;82;21124;-77
2021/07/28 10:31:45;;;;;;;8.38;5.00;;;;;;;34.75;40.30;99669.42;2082415;82;21034;-78
2021/07/28 10:34:47;;;;;;;9.85;4.72;;;;;;;34.72;39.40;99672.86;2077000;83;21105;-76
2021/07/28 10:37:54;;;;;;;12.28;5.03;;;;;;;34.86;39.44;99664.30;2103290;83;21545;-80
2021/07/28 10:40:59;;;;;;;8.53;4.80;;;;;;;34.98;39.04;99662.94;2088536;82;21627;-80
2021/07/28 10:44:22;;;;;;;8.78;4.45;;;;;;;34.68;38.70;99666.41;2092308;82;21085;-80
2021/07/28 10:47:52;;;;;;;10.10;4.45;;;;;;;34.23;38.56;99660.80;2084608;82;21072;-78
2021/07/28 10:50:53;;;;;;;6.37;4.72;;;;;;;33.86;39.44;99657.22;2089006;82;21033;-79
2021/07/28 10:53:55;;;;;;;7.33;4.60;;;;;;;33.69;39.35;99661.45;2086236;82;21081;-77
2021/07/28 10:57:10;;;;;;;10.28;4.90;;;;;;;33.33;39.51;99653.67;2098916;83;21025;-77
2021/07/28 11:00:14;;;;;;;10.20;5.10;;;;;;;33.18;39.89;99652.29;2089626;82;21084;-78
2021/07/28 11:03:21;;;;;;;11.28;5.00;;;;;;;33.14;40.05;99654.90;2077077;83;21077;-77
2021/07/28 11:06:21;;;;;;;9.23;5.17;;;;;;;32.97;40.26;99656.27;2098006;82;21070;-78
2021/07/28 11:09:25;;;;;;;8.63;4.65;;;;;;;32.78;40.27;99647.05;2083947;83;21068;-79
2021/07/28 11:12:30;;;;;;;9.85;5.00;;;;;;;32.72;40.70;99651.08;2099205;82;21626;-77
2021/07/28 11:15:32;;;;;;;11.65;5.65;;;;;;;32.59;40.42;99650.14;2096852;82;21033;-78
2021/07/28 11:18:41;;;;;;;12.43;5.12;;;;;;;32.45;41.16;99645.36;2089638;82;21037;-81
2021/07/28 11:21:43;;;;;;;5.30;4.80;;;;;;;32.33;41.28;99638.59;2082135;82;21117;-79
2021/07/28 11:24:50;;;;;;;8.23;5.05;;;;;;;32.17;41.67;99636.66;2089581;82;21051;-76
2021/07/28 11:28:07;;;;;;;9.93;5.12;;;;;;;32.06;41.67;99632.05;2095711;83;21014;-76
2021/07/28 11:31:08;;;;;;;6.85;4.80;;;;;;;31.83;41.78;99625.86;2058734;84;21579;-75
2021/07/28 11:34:21;;;;;;;6.78;4.72;;;;;;;31.90;42.17;99620.15;2064082;84;21113;-76
2021/07/28 11:37:23;;;;;;;14.18;4.97;;;;;;;32.01;41.87;99624.77;2069071;83;21094;-75
2021/07/28 11:40:44;;;;;;;10.03;4.95;;;;;;;32.15;41.94;99621.30;2075521;83;21120;-74
2021/07/28 11:43:45;;;;;;;8.83;5.28;;;;;;;32.36;41.65;99620.66;2076006;83;21108;-76
2021/07/28 11:46:55;;;;;;;6.55;4.95;;;;;;;32.49;41.25;99617.52;2091864;82;21002;-74
2021/07/28 11:50:05;;;;;;;5.20;4.72;;;;;;;32.72;41.70;99621.70;2074538;83;21604;-75
2021/07/28 11:53:07;;;;;;;10.55;5.12;;;;;;;32.79;40.78;99617.06;2046918;83;21539;-74
2021/07/28 11:56:13;;;;;;;4.83;4.22;;;;;;;32.78;40.20;99614.89;2021988;85;21094;-75
2021/07/28 11:59:20;;;;;;;7.33;4.70;;;;;;;32.89;39.75;99615.34;2094582;83;21108;-76
2021/07/28 12:02:21;;;;;;;5.40;4.75;;;;;;;33.19;39.82;99609.34;2084441;83;21036;-76
2021/07/28 12:05:23;;;;;;;6.22;4.62;;;;;;;33.41;39.84;99607.47;2073362;83;21114;-75
2021/07/28 12:08:36;;;;;;;6.92;4.62;;;;;;;33.71;39.31;99608.30;2084835;83;21599;-75
2021/07/28 12:12:20;;;;;;;4.62;4.10;;;;;;;34.02;38.35;99601.60;2085716;83;21057;-75
2021/07/28 12:15:22;;;;;;;6.42;4.33;;;;;;;34.41;38.31;99607.20;2079756;83;21073;-75
2021/07/28 12:18:45;;;;;;;5.85;4.50;;;;;;;34.56;37.27;99606.58;2078353;83;21114;-74
2021/07/28 12:21:58;;;;;;;9.15;4.70;;;;;;;34.47;37.60;99605.03;2064516;83;21075;-74
2021/07/28 12:25:22;;;;;;;8.78;4.53;;;;;;;34.26;37.21;99598.97;2083739;83;22404;-73
2021/07/28 12:28:44;;;;;;;5.65;4.42;;;;;;;34.11;36.65;99607.28;2086159;83;21032;-74
2021/07/28 12:31:46;;;;;;;7.20;4.12;;;;;;;33.77;37.60;99603.41;2084691;83;21237;-74
2021/07/28 12:34:47;;;;;;;6.08;4.53;;;;;;;33.93;37.50;99605.23;2082216;83;21089;-74
2021/07/28 12:38:15;;;;;;;6.47;3.92;;;;;;;34.14;37.29;99598.92;2084632;83;22353;-74
2021/07/28 12:41:18;;;;;;;7.08;5.08;;;;;;;34.05;36.79;99598.20;2093828;82;21116;-73
2021/07/28 12:44:20;;;;;;;19.52;4.90;;;;;;;33.99;36.92;99594.82;2070786;83;21125;-74
2021/07/28 12:47:21;;;;;;;9.15;4.33;;;;;;;33.69;37.07;99597.61;2080193;83;21068;-73
2021/07/28 12:50:23;;;;;;;8.98;5.03;;;;;;;33.42;37.54;99604.95;2090981;83;22083;-73
2021/07/28 12:53:25;;;;;;;12.63;5.70;;;;;;;33.10;37.96;99614.66;2086405;83;21105;-73
2021/07/28 12:56:27;;;;;;;6.83;4.70;;;;;;;32.54;37.98;99614.61;2073118;83;21072;-74
2021/07/28 12:59:29;;;;;;;9.08;4.95;;;;;;;31.96;38.63;99613.97;2082656;83;21402;-73
2021/07/28 13:02:32;;;;;;;6.45;4.58;;;;;;;31.65;39.53;99617.61;2073824;83;21057;-74
2021/07/28 13:05:40;;;;;;;11.10;4.67;;;;;;;31.54;39.98;99604.49;2077276;83;21056;-73
2021/07/28 13:08:41;;;;;;;8.48;4.60;;;;;;;31.20;40.03;99605.43;2077488;83;21129;-74
2021/07/28 13:11:43;;;;;;;7.28;3.90;;;;;;;30.93;40.30;99593.30;2086574;83;21136;-73
2021/07/28 13:14:44;;;;;;;4.28;3.52;;;;;;;30.63;40.22;99601.72;2085014;83;21057;-73
2021/07/28 13:17:46;;;;;;;6.45;3.85;;;;;;;30.49;39.95;99599.05;2084650;83;21620;-74
2021/07/28 13:20:47;;;;;;;4.53;3.42;;;;;;;30.52;40.72;99599.26;2073295;83;21092;-74
2021/07/28 13:23:49;;;;;;;5.47;3.40;;;;;;;30.58;40.63;99593.89;2083406;83;21595;-73
2021/07/28 13:26:52;;;;;;;3.75;3.05;;;;;;;30.66;40.20;99597.78;2078149;83;21156;-78
2021/07/28 13:29:53;;;;;;;5.50;3.77;;;;;;;30.60;39.72;99600.41;2066918;83;21108;-75
2021/07/28 13:32:55;;;;;;;5.03;3.25;;;;;;;30.49;39.92;99604.52;2072853;83;21108;-74
2021/07/28 13:35:56;;;;;;;4.22;3.00;;;;;;;30.41;39.58;99606.64;2077818;82;21123;-74
2021/07/28 13:38:58;;;;;;;36.50;25.45;;;;;;;30.14;39.71;99582.36;2076173;83;21128;-74
2021/07/28 13:42:00;;;;;;;18.07;12.98;;;;;;;30.38;40.31;99608.91;2077121;83;21395;-74
2021/07/28 13:45:02;;;;;;;15.98;13.13;;;;;;;30.55;40.16;99610.11;2071267;83;21132;-74
2021/07/28 13:48:05;;;;;;;12.85;8.15;;;;;;;30.73;41.13;99609.12;2058782;83;21591;-75
2021/07/28 13:51:07;;;;;;;7.40;4.87;;;;;;;30.95;41.23;99595.98;2068108;83;22699;-74
2021/07/28 13:54:09;;;;;;;6.25;4.40;;;;;;;30.98;40.96;99598.08;2073448;83;21599;-74
2021/07/28 13:57:18;;;;;;;5.37;3.80;;;;;;;30.94;40.82;99600.39;2092141;83;21097;-74
2021/07/28 14:00:20;;;;;;;13.30;4.45;;;;;;;30.99;40.89;99596.14;2060797;84;21113;-74
2021/07/28 14:03:22;;;;;;;10.48;3.77;;;;;;;30.97;40.81;99591.54;2066497;84;21104;-74
2021/07/28 14:06:23;;;;;;;6.72;4.00;;;;;;;30.83;41.46;99582.05;2076200;84;21061;-74
2021/07/28 14:09:25;;;;;;;7.78;4.40;;;;;;;30.69;41.61;99575.28;2075273;83;21004;-76
2021/07/28 14:12:27;;;;;;;6.05;4.05;;;;;;;30.50;41.84;99568.64;2079756;83;21553;-74
2021/07/28 14:15:28;;;;;;;6.47;4.37;;;;;;;30.37;42.17;99566.22;2079003;83;21549;-75